sensor_id;sensor_type;location;lat;lon;timestamp;P1;durP1;ratioP1;P2;durP2;ratioP2
37657;SDS011;23500;53.268;8.308;2022-07-23T00:00:52;3.33;;;2.28;;
37657;SDS011;23500;53.268;8.308;2022-07-23T00:03:17;3.83;;;2.47;;
37657;SDS011;23500;53.268;8.308;2022-07-23T00:05:43;3.30;;;2.25;;
37657;SDS011;23500;53.268;8.308;2022-07-23T00:08:09;3.85;;;2.22;;
37657;SDS011;23500;53.268;8.308;2022-07-23T00:10:34;3.33;;;2.30;;
37657;SDS011;23500;53.268;8.308;2022-07-23T00:13:00;2.85;;;2.05;;
37657;SDS011;23500;53.268;8.308;2022-07-23T00:15:26;3.88;;;2.25;;
37657;SDS011;23500;53.268;8.308;2022-07-23T00:17:52;3.88;;;2.67;;
37657;SDS011;23500;53.268;8.308;2022-07-23T00:20:17;3.08;;;2.20;;
37657;SDS011;23500;53.268;8.308;2022-07-23T00:22:50;2.85;;;2.05;;
37657;SDS011;23500;53.268;8.308;2022-07-23T00:25:19;3.30;;;2.05;;
37657;SDS011;23500;53.268;8.308;2022-07-23T00:27:48;3.17;;;2.40;;
37657;SDS011;23500;53.268;8.308;2022-07-23T00:30:14;4.03;;;2.50;;
37657;SDS011;23500;53.268;8.308;2022-07-23T00:35:12;4.32;;;2.30;;
37657;SDS011;23500;53.268;8.308;2022-07-23T00:37:38;3.25;;;2.28;;
37657;SDS011;23500;53.268;8.308;2022-07-23T00:40:04;3.70;;;2.20;;
37657;SDS011;23500;53.268;8.308;2022-07-23T00:42:33;2.72;;;2.17;;
37657;SDS011;23500;53.268;8.308;2022-07-23T00:44:59;3.78;;;2.42;;
37657;SDS011;23500;53.268;8.308;2022-07-23T00:47:24;3.30;;;2.30;;
37657;SDS011;23500;53.268;8.308;2022-07-23T00:49:50;3.30;;;2.40;;
37657;SDS011;23500;53.268;8.308;2022-07-23T00:52:16;2.90;;;2.13;;
37657;SDS011;23500;53.268;8.308;2022-07-23T00:54:42;3.90;;;2.05;;
37657;SDS011;23500;53.268;8.308;2022-07-23T00:57:08;2.85;;;2.25;;
37657;SDS011;23500;53.268;8.308;2022-07-23T00:59:34;2.35;;;2.15;;
37657;SDS011;23500;53.268;8.308;2022-07-23T01:02:00;2.65;;;2.00;;
37657;SDS011;23500;53.268;8.308;2022-07-23T01:04:25;2.80;;;2.25;;
37657;SDS011;23500;53.268;8.308;2022-07-23T01:06:51;2.38;;;1.80;;
37657;SDS011;23500;53.268;8.308;2022-07-23T01:09:17;2.45;;;2.03;;
37657;SDS011;23500;53.268;8.308;2022-07-23T01:11:43;2.83;;;2.20;;
37657;SDS011;23500;53.268;8.308;2022-07-23T01:16:36;3.25;;;2.33;;
37657;SDS011;23500;53.268;8.308;2022-07-23T01:19:02;3.50;;;2.08;;
37657;SDS011;23500;53.268;8.308;2022-07-23T01:21:31;3.22;;;1.90;;
37657;SDS011;23500;53.268;8.308;2022-07-23T01:24:10;2.78;;;2.03;;
37657;SDS011;23500;53.268;8.308;2022-07-23T01:26:37;2.88;;;2.03;;
37657;SDS011;23500;53.268;8.308;2022-07-23T01:29:04;3.05;;;1.90;;
37657;SDS011;23500;53.268;8.308;2022-07-23T01:31:30;2.78;;;2.08;;
37657;SDS011;23500;53.268;8.308;2022-07-23T01:33:56;3.25;;;2.33;;
37657;SDS011;23500;53.268;8.308;2022-07-23T01:36:22;2.63;;;1.95;;
37657;SDS011;23500;53.268;8.308;2022-07-23T01:38:49;2.78;;;2.05;;
37657;SDS011;23500;53.268;8.308;2022-07-23T01:41:15;2.15;;;1.75;;
37657;SDS011;23500;53.268;8.308;2022-07-23T01:43:41;2.70;;;2.05;;
37657;SDS011;23500;53.268;8.308;2022-07-23T01:46:07;2.80;;;1.98;;
37657;SDS011;23500;53.268;8.308;2022-07-23T01:48:33;2.10;;;1.77;;
37657;SDS011;23500;53.268;8.308;2022-07-23T01:50:59;3.30;;;2.20;;
37657;SDS011;23500;53.268;8.308;2022-07-23T01:53:24;2.97;;;2.13;;
37657;SDS011;23500;53.268;8.308;2022-07-23T01:55:50;3.30;;;1.85;;
37657;SDS011;23500;53.268;8.308;2022-07-23T01:58:15;2.55;;;1.95;;
37657;SDS011;23500;53.268;8.308;2022-07-23T02:00:41;2.47;;;1.88;;
37657;SDS011;23500;53.268;8.308;2022-07-23T02:03:07;2.20;;;2.00;;
37657;SDS011;23500;53.268;8.308;2022-07-23T02:05:32;2.80;;;2.10;;
37657;SDS011;23500;53.268;8.308;2022-07-23T02:07:58;3.33;;;1.98;;
37657;SDS011;23500;53.268;8.308;2022-07-23T02:10:25;2.30;;;1.60;;
37657;SDS011;23500;53.268;8.308;2022-07-23T02:12:51;3.00;;;1.80;;
37657;SDS011;23500;53.268;8.308;2022-07-23T02:15:17;2.75;;;1.90;;
37657;SDS011;23500;53.268;8.308;2022-07-23T02:17:43;2.60;;;2.00;;
37657;SDS011;23500;53.268;8.308;2022-07-23T02:20:09;2.55;;;1.90;;
37657;SDS011;23500;53.268;8.308;2022-07-23T02:22:35;2.03;;;1.80;;
37657;SDS011;23500;53.268;8.308;2022-07-23T02:25:02;3.80;;;1.73;;
37657;SDS011;23500;53.268;8.308;2022-07-23T02:27:28;2.10;;;1.77;;
37657;SDS011;23500;53.268;8.308;2022-07-23T02:29:54;2.45;;;2.00;;
37657;SDS011;23500;53.268;8.308;2022-07-23T02:32:20;3.00;;;1.98;;
37657;SDS011;23500;53.268;8.308;2022-07-23T02:34:48;2.33;;;1.52;;
37657;SDS011;23500;53.268;8.308;2022-07-23T02:37:14;1.92;;;1.75;;
37657;SDS011;23500;53.268;8.308;2022-07-23T02:39:40;2.55;;;1.85;;
37657;SDS011;23500;53.268;8.308;2022-07-23T02:42:05;2.50;;;1.80;;
37657;SDS011;23500;53.268;8.308;2022-07-23T02:44:31;3.03;;;1.92;;
37657;SDS011;23500;53.268;8.308;2022-07-23T02:46:57;1.73;;;1.63;;
37657;SDS011;23500;53.268;8.308;2022-07-23T02:49:22;2.85;;;2.10;;
37657;SDS011;23500;53.268;8.308;2022-07-23T02:51:48;2.72;;;1.90;;
37657;SDS011;23500;53.268;8.308;2022-07-23T02:54:14;2.53;;;1.67;;
37657;SDS011;23500;53.268;8.308;2022-07-23T02:56:40;2.25;;;1.77;;
37657;SDS011;23500;53.268;8.308;2022-07-23T02:59:05;2.20;;;1.90;;
37657;SDS011;23500;53.268;8.308;2022-07-23T03:01:31;1.95;;;1.70;;
37657;SDS011;23500;53.268;8.308;2022-07-23T03:03:57;2.10;;;1.90;;
37657;SDS011;23500;53.268;8.308;2022-07-23T03:06:22;2.45;;;1.80;;
37657;SDS011;23500;53.268;8.308;2022-07-23T03:08:48;2.17;;;1.73;;
37657;SDS011;23500;53.268;8.308;2022-07-23T03:11:14;2.72;;;1.60;;
37657;SDS011;23500;53.268;8.308;2022-07-23T03:13:39;1.70;;;1.45;;
37657;SDS011;23500;53.268;8.308;2022-07-23T03:16:06;2.13;;;1.90;;
37657;SDS011;23500;53.268;8.308;2022-07-23T03:18:32;1.50;;;1.40;;
37657;SDS011;23500;53.268;8.308;2022-07-23T03:20:58;2.03;;;1.80;;
37657;SDS011;23500;53.268;8.308;2022-07-23T03:23:25;2.90;;;1.85;;
37657;SDS011;23500;53.268;8.308;2022-07-23T03:25:51;1.90;;;1.63;;
37657;SDS011;23500;53.268;8.308;2022-07-23T03:28:17;1.95;;;1.75;;
37657;SDS011;23500;53.268;8.308;2022-07-23T03:30:43;1.75;;;1.52;;
37657;SDS011;23500;53.268;8.308;2022-07-23T03:33:11;2.05;;;1.77;;
37657;SDS011;23500;53.268;8.308;2022-07-23T03:35:38;2.42;;;2.05;;
37657;SDS011;23500;53.268;8.308;2022-07-23T03:38:03;2.17;;;1.90;;
37657;SDS011;23500;53.268;8.308;2022-07-23T03:40:29;1.80;;;1.70;;
37657;SDS011;23500;53.268;8.308;2022-07-23T03:42:55;1.52;;;1.42;;
37657;SDS011;23500;53.268;8.308;2022-07-23T03:45:20;2.17;;;1.70;;
37657;SDS011;23500;53.268;8.308;2022-07-23T03:47:46;2.35;;;1.88;;
37657;SDS011;23500;53.268;8.308;2022-07-23T03:50:12;2.17;;;2.08;;
37657;SDS011;23500;53.268;8.308;2022-07-23T03:52:37;1.98;;;1.77;;
37657;SDS011;23500;53.268;8.308;2022-07-23T03:55:03;2.40;;;2.20;;
37657;SDS011;23500;53.268;8.308;2022-07-23T03:57:30;2.20;;;1.77;;
37657;SDS011;23500;53.268;8.308;2022-07-23T03:59:56;2.00;;;1.80;;
37657;SDS011;23500;53.268;8.308;2022-07-23T04:02:21;2.22;;;1.80;;
37657;SDS011;23500;53.268;8.308;2022-07-23T04:04:47;2.70;;;1.95;;
37657;SDS011;23500;53.268;8.308;2022-07-23T04:07:13;2.45;;;1.70;;
37657;SDS011;23500;53.268;8.308;2022-07-23T04:09:39;1.67;;;1.58;;
37657;SDS011;23500;53.268;8.308;2022-07-23T04:12:05;1.70;;;1.60;;
37657;SDS011;23500;53.268;8.308;2022-07-23T04:14:32;2.00;;;1.60;;
37657;SDS011;23500;53.268;8.308;2022-07-23T04:16:58;2.22;;;1.52;;
37657;SDS011;23500;53.268;8.308;2022-07-23T04:19:24;2.55;;;1.58;;
37657;SDS011;23500;53.268;8.308;2022-07-23T04:21:51;1.85;;;1.70;;
37657;SDS011;23500;53.268;8.308;2022-07-23T04:24:16;2.42;;;1.60;;
37657;SDS011;23500;53.268;8.308;2022-07-23T04:26:43;2.08;;;1.70;;
37657;SDS011;23500;53.268;8.308;2022-07-23T04:29:09;2.15;;;1.90;;
37657;SDS011;23500;53.268;8.308;2022-07-23T04:31:35;2.03;;;1.83;;
37657;SDS011;23500;53.268;8.308;2022-07-23T04:34:01;2.13;;;1.80;;
37657;SDS011;23500;53.268;8.308;2022-07-23T04:36:26;1.92;;;1.77;;
37657;SDS011;23500;53.268;8.308;2022-07-23T04:38:52;2.28;;;1.90;;
37657;SDS011;23500;53.268;8.308;2022-07-23T04:41:19;1.80;;;1.50;;
37657;SDS011;23500;53.268;8.308;2022-07-23T04:43:45;1.70;;;1.55;;
37657;SDS011;23500;53.268;8.308;2022-07-23T04:46:11;1.80;;;1.50;;
37657;SDS011;23500;53.268;8.308;2022-07-23T04:48:36;1.92;;;1.70;;
37657;SDS011;23500;53.268;8.308;2022-07-23T04:51:02;2.85;;;1.60;;
37657;SDS011;23500;53.268;8.308;2022-07-23T04:53:28;1.92;;;1.73;;
37657;SDS011;23500;53.268;8.308;2022-07-23T04:55:54;1.55;;;1.42;;
37657;SDS011;23500;53.268;8.308;2022-07-23T04:58:20;1.67;;;1.50;;
37657;SDS011;23500;53.268;8.308;2022-07-23T05:00:46;1.80;;;1.45;;
37657;SDS011;23500;53.268;8.308;2022-07-23T05:03:12;2.38;;;1.90;;
37657;SDS011;23500;53.268;8.308;2022-07-23T05:05:37;3.38;;;1.80;;
37657;SDS011;23500;53.268;8.308;2022-07-23T05:08:03;2.03;;;1.70;;
37657;SDS011;23500;53.268;8.308;2022-07-23T05:10:29;2.33;;;1.63;;
37657;SDS011;23500;53.268;8.308;2022-07-23T05:12:55;1.77;;;1.60;;
37657;SDS011;23500;53.268;8.308;2022-07-23T05:15:20;1.85;;;1.50;;
37657;SDS011;23500;53.268;8.308;2022-07-23T05:17:46;1.42;;;1.33;;
37657;SDS011;23500;53.268;8.308;2022-07-23T05:20:12;2.03;;;1.60;;
37657;SDS011;23500;53.268;8.308;2022-07-23T05:22:38;2.53;;;1.77;;
37657;SDS011;23500;53.268;8.308;2022-07-23T05:25:04;1.65;;;1.55;;
37657;SDS011;23500;53.268;8.308;2022-07-23T05:27:30;2.20;;;1.50;;
37657;SDS011;23500;53.268;8.308;2022-07-23T05:29:56;2.33;;;1.63;;
37657;SDS011;23500;53.268;8.308;2022-07-23T05:32:22;2.38;;;1.50;;
37657;SDS011;23500;53.268;8.308;2022-07-23T05:34:48;1.80;;;1.70;;
37657;SDS011;23500;53.268;8.308;2022-07-23T05:37:13;2.13;;;1.70;;
37657;SDS011;23500;53.268;8.308;2022-07-23T05:39:39;1.83;;;1.55;;
37657;SDS011;23500;53.268;8.308;2022-07-23T05:42:05;1.95;;;1.50;;
37657;SDS011;23500;53.268;8.308;2022-07-23T05:44:30;1.80;;;1.58;;
37657;SDS011;23500;53.268;8.308;2022-07-23T05:46:56;1.58;;;1.48;;
37657;SDS011;23500;53.268;8.308;2022-07-23T05:49:22;1.63;;;1.52;;
37657;SDS011;23500;53.268;8.308;2022-07-23T05:51:47;1.50;;;1.40;;
37657;SDS011;23500;53.268;8.308;2022-07-23T05:54:13;2.03;;;1.70;;
37657;SDS011;23500;53.268;8.308;2022-07-23T05:56:39;2.08;;;1.73;;
37657;SDS011;23500;53.268;8.308;2022-07-23T05:59:04;2.17;;;1.50;;
37657;SDS011;23500;53.268;8.308;2022-07-23T06:01:31;1.48;;;1.30;;
37657;SDS011;23500;53.268;8.308;2022-07-23T06:03:56;1.60;;;1.50;;
37657;SDS011;23500;53.268;8.308;2022-07-23T06:06:22;1.65;;;1.55;;
37657;SDS011;23500;53.268;8.308;2022-07-23T06:08:48;1.40;;;1.30;;
37657;SDS011;23500;53.268;8.308;2022-07-23T06:11:13;1.80;;;1.70;;
37657;SDS011;23500;53.268;8.308;2022-07-23T06:13:39;1.45;;;1.35;;
37657;SDS011;23500;53.268;8.308;2022-07-23T06:16:05;1.55;;;1.35;;
37657;SDS011;23500;53.268;8.308;2022-07-23T06:18:30;1.63;;;1.52;;
37657;SDS011;23500;53.268;8.308;2022-07-23T06:20:56;1.95;;;1.40;;
37657;SDS011;23500;53.268;8.308;2022-07-23T06:23:22;2.10;;;1.30;;
37657;SDS011;23500;53.268;8.308;2022-07-23T06:25:47;1.50;;;1.40;;
37657;SDS011;23500;53.268;8.308;2022-07-23T06:28:13;1.50;;;1.40;;
37657;SDS011;23500;53.268;8.308;2022-07-23T06:30:39;1.88;;;1.52;;
37657;SDS011;23500;53.268;8.308;2022-07-23T06:33:04;1.67;;;1.45;;
37657;SDS011;23500;53.268;8.308;2022-07-23T06:35:30;1.92;;;1.55;;
37657;SDS011;23500;53.268;8.308;2022-07-23T06:37:56;1.60;;;1.50;;
37657;SDS011;23500;53.268;8.308;2022-07-23T06:40:21;1.73;;;1.50;;
37657;SDS011;23500;53.268;8.308;2022-07-23T06:42:47;1.60;;;1.50;;
37657;SDS011;23500;53.268;8.308;2022-07-23T06:45:13;1.90;;;1.60;;
37657;SDS011;23500;53.268;8.308;2022-07-23T06:47:38;1.52;;;1.42;;
37657;SDS011;23500;53.268;8.308;2022-07-23T06:50:05;1.42;;;1.33;;
37657;SDS011;23500;53.268;8.308;2022-07-23T06:52:31;1.30;;;1.20;;
37657;SDS011;23500;53.268;8.308;2022-07-23T06:54:57;1.48;;;1.38;;
37657;SDS011;23500;53.268;8.308;2022-07-23T06:57:23;2.17;;;1.48;;
37657;SDS011;23500;53.268;8.308;2022-07-23T06:59:50;1.70;;;1.60;;
37657;SDS011;23500;53.268;8.308;2022-07-23T07:02:16;2.40;;;1.60;;
37657;SDS011;23500;53.268;8.308;2022-07-23T07:04:42;1.35;;;1.25;;
37657;SDS011;23500;53.268;8.308;2022-07-23T07:07:07;1.83;;;1.63;;
37657;SDS011;23500;53.268;8.308;2022-07-23T07:09:33;1.55;;;1.45;;
37657;SDS011;23500;53.268;8.308;2022-07-23T07:11:59;1.50;;;1.40;;
37657;SDS011;23500;53.268;8.308;2022-07-23T07:14:24;1.98;;;1.70;;
37657;SDS011;23500;53.268;8.308;2022-07-23T07:16:50;1.58;;;1.48;;
37657;SDS011;23500;53.268;8.308;2022-07-23T07:19:16;2.35;;;1.40;;
37657;SDS011;23500;53.268;8.308;2022-07-23T07:21:41;1.58;;;1.48;;
37657;SDS011;23500;53.268;8.308;2022-07-23T07:24:07;1.75;;;1.42;;
37657;SDS011;23500;53.268;8.308;2022-07-23T07:26:33;1.45;;;1.35;;
37657;SDS011;23500;53.268;8.308;2022-07-23T07:28:59;1.60;;;1.30;;
37657;SDS011;23500;53.268;8.308;2022-07-23T07:31:25;1.38;;;1.27;;
37657;SDS011;23500;53.268;8.308;2022-07-23T07:33:51;1.40;;;1.30;;
37657;SDS011;23500;53.268;8.308;2022-07-23T07:36:16;1.63;;;1.40;;
37657;SDS011;23500;53.268;8.308;2022-07-23T07:38:42;1.33;;;1.23;;
37657;SDS011;23500;53.268;8.308;2022-07-23T07:41:08;1.60;;;1.42;;
37657;SDS011;23500;53.268;8.308;2022-07-23T07:43:35;1.55;;;1.45;;
37657;SDS011;23500;53.268;8.308;2022-07-23T07:46:02;1.35;;;1.25;;
37657;SDS011;23500;53.268;8.308;2022-07-23T07:48:28;3.00;;;1.33;;
37657;SDS011;23500;53.268;8.308;2022-07-23T07:50:54;1.77;;;1.40;;
37657;SDS011;23500;53.268;8.308;2022-07-23T07:53:20;1.55;;;1.40;;
37657;SDS011;23500;53.268;8.308;2022-07-23T07:55:45;3.40;;;1.52;;
37657;SDS011;23500;53.268;8.308;2022-07-23T07:58:11;3.45;;;1.70;;
37657;SDS011;23500;53.268;8.308;2022-07-23T08:00:37;3.08;;;1.83;;
37657;SDS011;23500;53.268;8.308;2022-07-23T08:03:02;3.28;;;2.10;;
37657;SDS011;23500;53.268;8.308;2022-07-23T08:05:29;5.22;;;2.53;;
37657;SDS011;23500;53.268;8.308;2022-07-23T08:07:55;4.95;;;2.50;;
37657;SDS011;23500;53.268;8.308;2022-07-23T08:10:21;9.20;;;3.40;;
37657;SDS011;23500;53.268;8.308;2022-07-23T08:12:48;5.90;;;2.83;;
37657;SDS011;23500;53.268;8.308;2022-07-23T08:15:16;7.30;;;3.13;;
37657;SDS011;23500;53.268;8.308;2022-07-23T08:17:44;8.07;;;2.75;;
37657;SDS011;23500;53.268;8.308;2022-07-23T08:20:12;6.25;;;2.80;;
37657;SDS011;23500;53.268;8.308;2022-07-23T08:22:51;4.93;;;2.72;;
37657;SDS011;23500;53.268;8.308;2022-07-23T08:25:20;5.07;;;2.65;;
37657;SDS011;23500;53.268;8.308;2022-07-23T08:27:50;6.13;;;3.15;;
37657;SDS011;23500;53.268;8.308;2022-07-23T08:30:16;7.10;;;3.20;;
37657;SDS011;23500;53.268;8.308;2022-07-23T08:35:22;4.88;;;2.47;;
37657;SDS011;23500;53.268;8.308;2022-07-23T08:37:53;4.28;;;2.60;;
37657;SDS011;23500;53.268;8.308;2022-07-23T08:40:19;5.15;;;2.63;;
37657;SDS011;23500;53.268;8.308;2022-07-23T08:42:49;4.88;;;2.50;;
37657;SDS011;23500;53.268;8.308;2022-07-23T08:45:16;4.55;;;2.03;;
37657;SDS011;23500;53.268;8.308;2022-07-23T08:47:45;5.30;;;2.70;;
37657;SDS011;23500;53.268;8.308;2022-07-23T08:50:13;3.17;;;2.45;;
37657;SDS011;23500;53.268;8.308;2022-07-23T08:52:39;4.70;;;2.22;;
37657;SDS011;23500;53.268;8.308;2022-07-23T08:55:05;4.85;;;2.38;;
37657;SDS011;23500;53.268;8.308;2022-07-23T08:57:32;5.15;;;2.20;;
37657;SDS011;23500;53.268;8.308;2022-07-23T08:59:57;3.22;;;1.50;;
37657;SDS011;23500;53.268;8.308;2022-07-23T09:02:23;5.03;;;1.20;;
37657;SDS011;23500;53.268;8.308;2022-07-23T09:04:49;1.63;;;1.00;;
37657;SDS011;23500;53.268;8.308;2022-07-23T09:07:14;2.97;;;1.73;;
37657;SDS011;23500;53.268;8.308;2022-07-23T09:09:40;1.50;;;1.00;;
37657;SDS011;23500;53.268;8.308;2022-07-23T09:12:06;2.72;;;0.90;;
37657;SDS011;23500;53.268;8.308;2022-07-23T09:14:38;3.00;;;0.80;;
37657;SDS011;23500;53.268;8.308;2022-07-23T09:17:12;2.78;;;0.80;;
37657;SDS011;23500;53.268;8.308;2022-07-23T09:19:42;1.10;;;0.80;;
37657;SDS011;23500;53.268;8.308;2022-07-23T09:27:49;2.78;;;1.00;;
37657;SDS011;23500;53.268;8.308;2022-07-23T09:30:15;1.98;;;0.80;;
37657;SDS011;23500;53.268;8.308;2022-07-23T09:32:41;1.10;;;0.80;;
37657;SDS011;23500;53.268;8.308;2022-07-23T09:35:07;1.38;;;0.75;;
37657;SDS011;23500;53.268;8.308;2022-07-23T09:37:33;2.35;;;0.98;;
37657;SDS011;23500;53.268;8.308;2022-07-23T09:40:09;2.15;;;0.88;;
37657;SDS011;23500;53.268;8.308;2022-07-23T09:42:38;1.92;;;0.93;;
37657;SDS011;23500;53.268;8.308;2022-07-23T09:45:04;1.38;;;0.77;;
37657;SDS011;23500;53.268;8.308;2022-07-23T09:47:37;2.25;;;0.82;;
37657;SDS011;23500;53.268;8.308;2022-07-23T09:50:09;1.75;;;0.80;;
37657;SDS011;23500;53.268;8.308;2022-07-23T09:52:48;2.38;;;0.80;;
37657;SDS011;23500;53.268;8.308;2022-07-23T09:55:15;2.45;;;0.85;;
37657;SDS011;23500;53.268;8.308;2022-07-23T09:57:42;1.20;;;0.80;;
37657;SDS011;23500;53.268;8.308;2022-07-23T10:00:10;2.08;;;0.80;;
37657;SDS011;23500;53.268;8.308;2022-07-23T10:02:36;2.13;;;0.90;;
37657;SDS011;23500;53.268;8.308;2022-07-23T10:05:03;1.00;;;0.70;;
37657;SDS011;23500;53.268;8.308;2022-07-23T10:07:31;1.30;;;0.70;;
37657;SDS011;23500;53.268;8.308;2022-07-23T10:10:00;1.00;;;0.70;;
37657;SDS011;23500;53.268;8.308;2022-07-23T10:12:27;1.38;;;0.70;;
37657;SDS011;23500;53.268;8.308;2022-07-23T10:15:11;2.20;;;0.68;;
37657;SDS011;23500;53.268;8.308;2022-07-23T10:17:36;1.52;;;0.70;;
37657;SDS011;23500;53.268;8.308;2022-07-23T10:20:03;1.27;;;0.70;;
37657;SDS011;23500;53.268;8.308;2022-07-23T10:22:37;1.25;;;0.82;;
37657;SDS011;23500;53.268;8.308;2022-07-23T10:25:24;1.27;;;0.90;;
37657;SDS011;23500;53.268;8.308;2022-07-23T10:34:02;1.45;;;0.90;;
37657;SDS011;23500;53.268;8.308;2022-07-23T10:39:32;2.22;;;1.30;;
37657;SDS011;23500;53.268;8.308;2022-07-23T10:42:12;2.33;;;1.10;;
37657;SDS011;23500;53.268;8.308;2022-07-23T10:44:47;3.67;;;1.20;;
37657;SDS011;23500;53.268;8.308;2022-07-23T10:47:28;1.73;;;1.08;;
37657;SDS011;23500;53.268;8.308;2022-07-23T10:50:19;2.08;;;1.08;;
37657;SDS011;23500;53.268;8.308;2022-07-23T10:57:59;1.95;;;1.08;;
37657;SDS011;23500;53.268;8.308;2022-07-23T11:00:29;4.82;;;0.95;;
37657;SDS011;23500;53.268;8.308;2022-07-23T11:02:57;1.10;;;0.75;;
37657;SDS011;23500;53.268;8.308;2022-07-23T11:05:41;1.95;;;0.70;;
37657;SDS011;23500;53.268;8.308;2022-07-23T11:10:40;1.67;;;0.80;;
37657;SDS011;23500;53.268;8.308;2022-07-23T11:29:37;1.65;;;0.60;;
37657;SDS011;23500;53.268;8.308;2022-07-23T11:32:08;1.58;;;0.55;;
37657;SDS011;23500;53.268;8.308;2022-07-23T11:34:52;1.25;;;0.70;;
37657;SDS011;23500;53.268;8.308;2022-07-23T11:39:56;1.33;;;0.65;;
37657;SDS011;23500;53.268;8.308;2022-07-23T11:42:23;1.45;;;0.77;;
37657;SDS011;23500;53.268;8.308;2022-07-23T11:44:49;1.48;;;0.75;;
37657;SDS011;23500;53.268;8.308;2022-07-23T11:47:20;1.30;;;0.70;;
37657;SDS011;23500;53.268;8.308;2022-07-23T11:49:56;1.52;;;0.70;;
37657;SDS011;23500;53.268;8.308;2022-07-23T11:52:24;0.55;;;0.55;;
37657;SDS011;23500;53.268;8.308;2022-07-23T11:54:52;0.88;;;0.60;;
37657;SDS011;23500;53.268;8.308;2022-07-23T11:57:29;1.98;;;0.80;;
37657;SDS011;23500;53.268;8.308;2022-07-23T11:59:57;1.33;;;0.75;;
37657;SDS011;23500;53.268;8.308;2022-07-23T12:02:36;1.58;;;0.90;;
37657;SDS011;23500;53.268;8.308;2022-07-23T12:05:03;0.80;;;0.80;;
37657;SDS011;23500;53.268;8.308;2022-07-23T12:07:34;0.77;;;0.60;;
37657;SDS011;23500;53.268;8.308;2022-07-23T12:10:13;1.13;;;0.77;;
37657;SDS011;23500;53.268;8.308;2022-07-23T12:12:43;1.30;;;0.80;;
37657;SDS011;23500;53.268;8.308;2022-07-23T12:15:11;1.10;;;1.00;;
37657;SDS011;23500;53.268;8.308;2022-07-23T12:17:40;0.70;;;0.70;;
37657;SDS011;23500;53.268;8.308;2022-07-23T12:20:08;1.38;;;1.10;;
37657;SDS011;23500;53.268;8.308;2022-07-23T12:22:38;1.45;;;1.00;;
37657;SDS011;23500;53.268;8.308;2022-07-23T12:25:08;2.47;;;1.00;;
37657;SDS011;23500;53.268;8.308;2022-07-23T12:27:38;1.20;;;1.10;;
37657;SDS011;23500;53.268;8.308;2022-07-23T12:30:20;1.30;;;1.20;;
37657;SDS011;23500;53.268;8.308;2022-07-23T12:32:49;0.93;;;0.93;;
37657;SDS011;23500;53.268;8.308;2022-07-23T12:35:16;1.90;;;1.17;;
37657;SDS011;23500;53.268;8.308;2022-07-23T12:37:43;1.20;;;1.10;;
37657;SDS011;23500;53.268;8.308;2022-07-23T12:42:59;1.90;;;1.23;;
37657;SDS011;23500;53.268;8.308;2022-07-23T12:45:45;1.52;;;1.25;;
37657;SDS011;23500;53.268;8.308;2022-07-23T12:48:21;1.23;;;1.13;;
37657;SDS011;23500;53.268;8.308;2022-07-23T12:51:01;1.75;;;1.20;;
37657;SDS011;23500;53.268;8.308;2022-07-23T12:53:41;1.50;;;1.40;;
37657;SDS011;23500;53.268;8.308;2022-07-23T12:56:09;2.22;;;1.20;;
37657;SDS011;23500;53.268;8.308;2022-07-23T12:58:54;2.38;;;1.30;;
37657;SDS011;23500;53.268;8.308;2022-07-23T13:06:43;1.45;;;1.35;;
37657;SDS011;23500;53.268;8.308;2022-07-23T13:09:12;1.58;;;1.48;;
37657;SDS011;23500;53.268;8.308;2022-07-23T13:11:48;1.75;;;1.40;;
37657;SDS011;23500;53.268;8.308;2022-07-23T13:14:15;1.48;;;1.38;;
37657;SDS011;23500;53.268;8.308;2022-07-23T13:16:42;1.45;;;1.30;;
37657;SDS011;23500;53.268;8.308;2022-07-23T13:19:09;1.48;;;1.38;;
37657;SDS011;23500;53.268;8.308;2022-07-23T13:21:34;1.98;;;1.50;;
37657;SDS011;23500;53.268;8.308;2022-07-23T13:24:00;1.63;;;1.50;;
37657;SDS011;23500;53.268;8.308;2022-07-23T13:26:26;1.60;;;1.50;;
37657;SDS011;23500;53.268;8.308;2022-07-23T13:28:52;1.45;;;1.35;;
37657;SDS011;23500;53.268;8.308;2022-07-23T13:31:18;2.65;;;1.30;;
37657;SDS011;23500;53.268;8.308;2022-07-23T13:33:45;1.60;;;1.50;;
37657;SDS011;23500;53.268;8.308;2022-07-23T13:36:11;2.15;;;1.55;;
37657;SDS011;23500;53.268;8.308;2022-07-23T13:38:36;1.83;;;1.60;;
37657;SDS011;23500;53.268;8.308;2022-07-23T13:41:04;1.58;;;1.48;;
37657;SDS011;23500;53.268;8.308;2022-07-23T13:43:29;2.10;;;1.48;;
37657;SDS011;23500;53.268;8.308;2022-07-23T13:45:55;1.65;;;1.50;;
37657;SDS011;23500;53.268;8.308;2022-07-23T13:48:21;2.60;;;1.75;;
37657;SDS011;23500;53.268;8.308;2022-07-23T13:50:47;1.88;;;1.63;;
37657;SDS011;23500;53.268;8.308;2022-07-23T13:53:16;1.42;;;1.33;;
37657;SDS011;23500;53.268;8.308;2022-07-23T13:55:43;2.53;;;1.67;;
37657;SDS011;23500;53.268;8.308;2022-07-23T13:58:10;2.28;;;1.80;;
37657;SDS011;23500;53.268;8.308;2022-07-23T14:00:37;2.40;;;1.60;;
37657;SDS011;23500;53.268;8.308;2022-07-23T14:03:06;2.20;;;2.00;;
37657;SDS011;23500;53.268;8.308;2022-07-23T14:05:32;1.65;;;1.52;;
37657;SDS011;23500;53.268;8.308;2022-07-23T14:07:58;1.92;;;1.83;;
37657;SDS011;23500;53.268;8.308;2022-07-23T14:10:24;2.55;;;1.70;;
37657;SDS011;23500;53.268;8.308;2022-07-23T14:12:50;4.18;;;2.10;;
37657;SDS011;23500;53.268;8.308;2022-07-23T14:15:18;2.30;;;1.95;;
37657;SDS011;23500;53.268;8.308;2022-07-23T14:17:44;2.72;;;1.60;;
37657;SDS011;23500;53.268;8.308;2022-07-23T14:20:11;1.92;;;1.70;;
37657;SDS011;23500;53.268;8.308;2022-07-23T14:22:38;2.80;;;2.10;;
37657;SDS011;23500;53.268;8.308;2022-07-23T14:25:04;2.13;;;1.92;;
37657;SDS011;23500;53.268;8.308;2022-07-23T14:27:31;2.33;;;1.67;;
37657;SDS011;23500;53.268;8.308;2022-07-23T14:29:57;1.92;;;1.50;;
37657;SDS011;23500;53.268;8.308;2022-07-23T14:32:23;2.92;;;1.65;;
37657;SDS011;23500;53.268;8.308;2022-07-23T14:34:49;1.80;;;1.70;;
37657;SDS011;23500;53.268;8.308;2022-07-23T14:37:15;2.85;;;1.65;;
37657;SDS011;23500;53.268;8.308;2022-07-23T14:39:42;2.90;;;2.00;;
37657;SDS011;23500;53.268;8.308;2022-07-23T14:42:08;2.60;;;1.60;;
37657;SDS011;23500;53.268;8.308;2022-07-23T14:44:34;2.58;;;1.95;;
37657;SDS011;23500;53.268;8.308;2022-07-23T14:47:01;3.20;;;2.00;;
37657;SDS011;23500;53.268;8.308;2022-07-23T14:49:29;2.97;;;2.13;;
37657;SDS011;23500;53.268;8.308;2022-07-23T14:51:55;2.42;;;1.80;;
37657;SDS011;23500;53.268;8.308;2022-07-23T14:54:21;2.50;;;2.00;;
37657;SDS011;23500;53.268;8.308;2022-07-23T14:56:47;2.50;;;2.30;;
37657;SDS011;23500;53.268;8.308;2022-07-23T14:59:13;2.53;;;2.05;;
37657;SDS011;23500;53.268;8.308;2022-07-23T15:01:39;2.65;;;2.00;;
37657;SDS011;23500;53.268;8.308;2022-07-23T15:04:06;1.92;;;1.77;;
37657;SDS011;23500;53.268;8.308;2022-07-23T15:06:32;2.38;;;1.95;;
37657;SDS011;23500;53.268;8.308;2022-07-23T15:08:58;2.33;;;2.10;;
37657;SDS011;23500;53.268;8.308;2022-07-23T15:11:25;2.25;;;1.90;;
37657;SDS011;23500;53.268;8.308;2022-07-23T15:13:52;2.70;;;2.40;;
37657;SDS011;23500;53.268;8.308;2022-07-23T15:16:18;2.42;;;2.20;;
37657;SDS011;23500;53.268;8.308;2022-07-23T15:18:43;2.30;;;2.03;;
37657;SDS011;23500;53.268;8.308;2022-07-23T15:21:09;1.88;;;1.77;;
37657;SDS011;23500;53.268;8.308;2022-07-23T15:23:35;2.78;;;2.08;;
37657;SDS011;23500;53.268;8.308;2022-07-23T15:26:03;2.85;;;2.00;;
37657;SDS011;23500;53.268;8.308;2022-07-23T15:28:28;2.13;;;1.80;;
37657;SDS011;23500;53.268;8.308;2022-07-23T15:30:54;2.20;;;1.95;;
37657;SDS011;23500;53.268;8.308;2022-07-23T15:33:20;1.88;;;1.77;;
37657;SDS011;23500;53.268;8.308;2022-07-23T15:35:46;1.92;;;1.83;;
37657;SDS011;23500;53.268;8.308;2022-07-23T15:38:11;3.17;;;2.00;;
37657;SDS011;23500;53.268;8.308;2022-07-23T15:40:38;2.85;;;1.80;;
37657;SDS011;23500;53.268;8.308;2022-07-23T15:43:03;1.92;;;1.70;;
37657;SDS011;23500;53.268;8.308;2022-07-23T15:45:32;3.50;;;1.80;;